createdAt,value
2019-05-30T00:00:22.834Z,0
2019-05-30T00:01:07.070Z,0
2019-05-30T00:02:07.614Z,0
2019-05-30T00:03:07.355Z,0
2019-05-30T00:04:08.311Z,0
2019-05-30T00:05:07.527Z,0
2019-05-30T00:06:07.563Z,0
2019-05-30T00:07:10.717Z,0
2019-05-30T00:08:07.336Z,0
2019-05-30T00:09:07.916Z,0
2019-05-30T00:10:07.658Z,0
2019-05-30T00:11:07.424Z,0
2019-05-30T00:12:07.357Z,0
2019-05-30T00:13:07.647Z,0
2019-05-30T00:14:07.271Z,0
2019-05-30T00:15:08.409Z,0
2019-05-30T00:16:08.013Z,0
2019-05-30T00:17:05.720Z,0
2019-05-30T00:18:07.317Z,0
2019-05-30T00:19:07.381Z,0
2019-05-30T00:20:08.124Z,0
2019-05-30T00:21:05.862Z,0
2019-05-30T00:22:06.541Z,0
2019-05-30T00:23:05.919Z,0
2019-05-30T00:24:08.232Z,0
2019-05-30T00:25:07.228Z,0
2019-05-30T00:26:07.479Z,0
2019-05-30T00:27:07.098Z,0
2019-05-30T00:28:07.629Z,0
2019-05-30T00:29:07.239Z,0
2019-05-30T00:30:19.829Z,0
2019-05-30T00:31:07.048Z,0
2019-05-30T00:32:07.818Z,0
2019-05-30T00:33:09.437Z,0
2019-05-30T00:34:08.346Z,0
2019-05-30T00:35:06.840Z,0
2019-05-30T00:36:06.888Z,0
2019-05-30T00:37:06.859Z,0
2019-05-30T00:38:06.869Z,0
2019-05-30T00:39:06.769Z,0
2019-05-30T00:40:06.922Z,0
2019-05-30T00:41:06.743Z,0
2019-05-30T00:42:06.767Z,0
2019-05-30T00:43:06.789Z,0
2019-05-30T00:44:06.677Z,0
2019-05-30T00:45:21.462Z,0
2019-05-30T00:46:06.531Z,0
2019-05-30T00:47:06.764Z,0
2019-05-30T00:48:06.743Z,0
2019-05-30T00:49:06.590Z,0
2019-05-30T00:50:06.662Z,0
2019-05-30T00:51:06.636Z,0
2019-05-30T00:52:06.662Z,0
2019-05-30T00:53:07.692Z,0
2019-05-30T00:54:06.855Z,0
2019-05-30T00:55:06.839Z,0
2019-05-30T00:56:07.431Z,0
2019-05-30T00:57:06.856Z,0
2019-05-30T00:58:07.315Z,0
2019-05-30T00:59:07.251Z,0
2019-05-30T01:00:07.417Z,0
2019-05-30T01:01:07.604Z,0
2019-05-30T01:02:06.739Z,0
2019-05-30T01:03:11.771Z,0
2019-05-30T01:04:06.982Z,0
2019-05-30T01:05:07.387Z,0
2019-05-30T01:06:07.140Z,0
2019-05-30T01:07:07.563Z,0
2019-05-30T01:08:07.320Z,0
2019-05-30T01:09:07.589Z,0
2019-05-30T01:10:07.669Z,0
2019-05-30T01:11:07.104Z,0
2019-05-30T01:12:07.621Z,0
2019-05-30T01:13:07.606Z,0
2019-05-30T01:14:07.466Z,0
2019-05-30T01:15:07.330Z,0
2019-05-30T01:16:07.226Z,0
2019-05-30T01:17:07.246Z,0
2019-05-30T01:18:05.771Z,0
2019-05-30T01:19:05.763Z,0
2019-05-30T01:20:05.859Z,0
2019-05-30T01:21:07.322Z,0
2019-05-30T01:22:05.978Z,0
2019-05-30T01:23:05.956Z,0
2019-05-30T01:24:05.991Z,0
2019-05-30T01:25:07.806Z,0
2019-05-30T01:26:05.775Z,0
2019-05-30T01:27:05.772Z,0
2019-05-30T01:28:05.927Z,0
2019-05-30T01:29:04.166Z,0
2019-05-30T01:30:05.636Z,0
2019-05-30T01:31:15.804Z,0
2019-05-30T01:32:05.522Z,0
2019-05-30T01:33:06.162Z,0
2019-05-30T01:34:04.317Z,0
2019-05-30T01:35:06.213Z,0
2019-05-30T01:36:06.103Z,0
2019-05-30T01:37:05.765Z,0
2019-05-30T01:38:05.843Z,0
2019-05-30T01:39:05.571Z,0
2019-05-30T01:40:06.340Z,0
2019-05-30T01:41:06.468Z,0
2019-05-30T01:42:05.865Z,0
2019-05-30T01:43:06.425Z,0
2019-05-30T01:44:06.006Z,0
2019-05-30T01:45:06.564Z,0
2019-05-30T01:46:06.627Z,0
2019-05-30T01:47:06.526Z,0
2019-05-30T01:48:06.893Z,0
2019-05-30T01:49:06.671Z,0
2019-05-30T01:50:06.375Z,0
2019-05-30T01:51:06.893Z,0
2019-05-30T01:52:06.600Z,0
2019-05-30T01:53:05.059Z,0
2019-05-30T01:54:05.205Z,0
2019-05-30T01:55:05.251Z,0
2019-05-30T01:56:05.226Z,0
2019-05-30T01:57:04.932Z,0
2019-05-30T01:58:05.465Z,0
2019-05-30T01:59:04.993Z,0
2019-05-30T02:00:19.778Z,0
2019-05-30T02:01:27.727Z,0
2019-05-30T02:02:05.007Z,0
2019-05-30T02:03:04.881Z,0
2019-05-30T02:04:05.104Z,0
2019-05-30T02:05:05.010Z,0
2019-05-30T02:06:03.721Z,0
2019-05-30T02:07:05.113Z,0
2019-05-30T02:08:03.746Z,0
2019-05-30T02:09:03.681Z,0
2019-05-30T02:10:03.891Z,0
2019-05-30T02:11:03.927Z,0
2019-05-30T02:12:04.044Z,0
2019-05-30T02:13:04.011Z,0
2019-05-30T02:14:05.604Z,0
2019-05-30T02:15:04.124Z,0
2019-05-30T02:16:05.691Z,0
2019-05-30T02:17:05.720Z,0
2019-05-30T02:18:04.194Z,0
2019-05-30T02:19:04.249Z,0
2019-05-30T02:20:04.384Z,0
2019-05-30T02:21:05.752Z,0
2019-05-30T02:22:04.434Z,0
2019-05-30T02:23:09.412Z,0
2019-05-30T02:24:04.457Z,0
2019-05-30T02:25:04.402Z,0
2019-05-30T02:26:04.540Z,0
2019-05-30T02:27:04.545Z,0
2019-05-30T02:28:04.411Z,0
2019-05-30T02:29:04.296Z,0
2019-05-30T02:30:06.555Z,0
2019-05-30T02:31:05.147Z,0
2019-05-30T02:32:05.393Z,0
2019-05-30T02:33:05.127Z,0
2019-05-30T02:34:05.738Z,0
2019-05-30T02:35:03.813Z,0
2019-05-30T02:36:07.553Z,0
2019-05-30T02:37:05.988Z,4
2019-05-30T02:38:05.069Z,4
2019-05-30T02:39:04.772Z,4
2019-05-30T02:40:17.599Z,0
2019-05-30T02:41:05.416Z,0
2019-05-30T02:42:03.768Z,4
2019-05-30T02:43:05.377Z,4
2019-05-30T02:44:05.276Z,4
2019-05-30T02:45:05.463Z,4
2019-05-30T02:46:04.015Z,4
2019-05-30T02:47:05.426Z,8
2019-05-30T02:48:05.338Z,4
2019-05-30T02:49:14.105Z,8
2019-05-30T02:50:05.972Z,8
2019-05-30T02:51:03.465Z,8
2019-05-30T02:52:04.657Z,8
2019-05-30T02:53:03.766Z,12
2019-05-30T02:54:05.876Z,12
2019-05-30T02:55:06.049Z,16
2019-05-30T02:56:05.848Z,16
2019-05-30T02:57:05.425Z,16
2019-05-30T02:58:04.240Z,20
2019-05-30T02:59:05.931Z,24
2019-05-30T03:00:07.496Z,28
2019-05-30T03:01:06.826Z,28
2019-05-30T03:02:19.956Z,36
2019-05-30T03:03:06.479Z,40
2019-05-30T03:04:06.076Z,44
2019-05-30T03:05:06.243Z,48
2019-05-30T03:06:06.234Z,52
2019-05-30T03:07:06.396Z,56
2019-05-30T03:08:06.177Z,64
2019-05-30T03:09:06.016Z,72
2019-05-30T03:10:06.944Z,80
2019-05-30T03:11:07.041Z,88
2019-05-30T03:12:06.346Z,96
2019-05-30T03:13:05.930Z,108
2019-05-30T03:14:04.245Z,120
2019-05-30T03:15:06.433Z,132
2019-05-30T03:16:04.014Z,140
2019-05-30T03:17:03.103Z,144
2019-05-30T03:18:02.243Z,144
2019-05-30T03:19:02.079Z,144
2019-05-30T03:20:05.419Z,152
2019-05-30T03:21:03.235Z,160
2019-05-30T03:22:03.275Z,168
2019-05-30T03:23:03.053Z,184
2019-05-30T03:24:02.646Z,200
2019-05-30T03:25:02.927Z,216
2019-05-30T03:26:02.525Z,240
2019-05-30T03:27:02.564Z,264
2019-05-30T03:28:02.732Z,292
2019-05-30T03:29:02.652Z,324
2019-05-30T03:30:04.991Z,360
2019-05-30T03:31:05.587Z,392
2019-05-30T03:33:04.904Z,456
2019-05-30T03:33:48.634Z,500
2019-05-30T03:34:38.874Z,536
2019-05-30T03:35:49.368Z,588
2019-05-30T03:36:39.312Z,624
2019-05-30T03:37:38.823Z,672
2019-05-30T03:38:38.765Z,716
2019-05-30T03:39:38.742Z,764
2019-05-30T03:40:39.148Z,800
2019-05-30T03:41:38.686Z,840
2019-05-30T03:42:38.674Z,876
2019-05-30T03:43:38.657Z,924
2019-05-30T03:44:38.651Z,976
2019-05-30T03:45:37.907Z,1028
2019-05-30T03:46:38.584Z,1088
2019-05-30T03:47:38.571Z,1156
2019-05-30T03:48:38.545Z,1232
2019-05-30T03:49:38.553Z,1320
2019-05-30T03:50:38.681Z,1420
2019-05-30T03:51:38.492Z,1532
2019-05-30T03:52:38.493Z,1632
2019-05-30T03:53:38.464Z,1712
2019-05-30T03:54:38.205Z,1784
2019-05-30T03:55:37.931Z,1848
2019-05-30T03:56:38.395Z,1904
2019-05-30T03:57:38.367Z,1944
2019-05-30T03:58:38.344Z,1972
2019-05-30T03:59:38.326Z,1992
2019-05-30T04:00:38.063Z,2004
2019-05-30T04:01:38.280Z,2020
2019-05-30T04:03:01.701Z,2072
2019-05-30T04:03:38.231Z,2104
2019-05-30T04:04:38.212Z,2148
2019-05-30T04:05:37.722Z,2188
2019-05-30T04:06:38.196Z,2220
2019-05-30T04:07:38.190Z,2232
2019-05-30T04:08:38.133Z,2248
2019-05-30T04:09:38.130Z,2252
2019-05-30T04:10:37.856Z,2264
2019-05-30T04:11:38.101Z,2284
2019-05-30T04:12:38.052Z,2312
2019-05-30T04:13:38.037Z,2336
2019-05-30T04:14:38.017Z,2352
2019-05-30T04:15:37.747Z,2352
2019-05-30T04:16:37.975Z,2328
2019-05-30T04:17:37.953Z,2296
2019-05-30T04:18:37.936Z,2260
2019-05-30T04:19:37.923Z,2228
2019-05-30T04:20:37.810Z,2212
2019-05-30T04:21:37.852Z,2200
2019-05-30T04:22:37.855Z,2192
2019-05-30T04:23:37.815Z,2172
2019-05-30T04:24:37.813Z,2152
2019-05-30T04:25:37.782Z,2116
2019-05-30T04:26:37.775Z,2068
2019-05-30T04:27:37.731Z,2016
2019-05-30T04:28:37.750Z,1972
2019-05-30T04:29:37.713Z,1948
2019-05-30T04:30:37.460Z,1944
2019-05-30T04:31:37.653Z,1952
2019-05-30T04:32:37.648Z,1972
2019-05-30T04:33:40.755Z,2024
2019-05-30T04:34:37.598Z,2084
2019-05-30T04:35:37.591Z,2180
2019-05-30T04:36:37.715Z,2300
2019-05-30T04:37:38.331Z,2440
2019-05-30T04:38:37.515Z,2600
2019-05-30T04:39:38.412Z,2792
2019-05-30T04:40:37.230Z,3000
2019-05-30T04:41:37.470Z,3232
2019-05-30T04:42:37.445Z,3488
2019-05-30T04:43:37.401Z,3752
2019-05-30T04:44:37.391Z,4020
2019-05-30T04:45:37.375Z,4264
2019-05-30T04:46:37.354Z,4496
2019-05-30T04:47:37.097Z,4712
2019-05-30T04:48:37.302Z,4916
2019-05-30T04:49:37.314Z,5084
2019-05-30T04:50:37.098Z,5228
2019-05-30T04:51:37.243Z,5328
2019-05-30T04:52:37.233Z,5368
2019-05-30T04:53:37.220Z,5372
2019-05-30T04:54:37.207Z,5328
2019-05-30T04:55:36.734Z,5252
2019-05-30T04:56:37.143Z,5160
2019-05-30T04:57:37.128Z,5072
2019-05-30T04:58:41.798Z,5016
2019-05-30T04:59:37.088Z,4984
2019-05-30T05:00:36.579Z,4984
2019-05-30T05:01:37.051Z,5020
2019-05-30T05:02:37.025Z,5112
2019-05-30T05:03:52.848Z,5272
2019-05-30T05:04:36.985Z,5368
2019-05-30T05:05:36.525Z,5488
2019-05-30T05:06:37.154Z,5608
2019-05-30T05:07:38.141Z,5756
2019-05-30T05:08:37.214Z,5932
2019-05-30T05:09:36.880Z,6160
2019-05-30T05:10:36.623Z,6452
2019-05-30T05:11:36.851Z,6772
2019-05-30T05:12:36.822Z,7040
2019-05-30T05:13:36.800Z,7204
2019-05-30T05:14:36.786Z,7300
2019-05-30T05:15:36.287Z,7348
2019-05-30T05:16:42.916Z,7380
2019-05-30T05:17:36.731Z,7396
2019-05-30T05:18:36.704Z,7332
2019-05-30T05:19:36.682Z,7152
2019-05-30T05:20:40.377Z,6960
2019-05-30T05:21:36.647Z,6832
2019-05-30T05:22:36.708Z,6708
2019-05-30T05:23:36.618Z,6524
2019-05-30T05:24:36.585Z,6292
2019-05-30T05:25:35.856Z,6044
2019-05-30T05:26:36.541Z,5816
2019-05-30T05:27:36.535Z,5660
2019-05-30T05:28:36.508Z,5548
2019-05-30T05:29:36.486Z,5476
2019-05-30T05:30:36.236Z,5436
2019-05-30T05:31:36.451Z,5488
2019-05-30T05:32:36.440Z,5596
2019-05-30T05:33:36.182Z,5732
2019-05-30T05:34:36.400Z,5864
2019-05-30T05:35:36.379Z,6016
2019-05-30T05:36:36.357Z,6196
2019-05-30T05:37:36.346Z,6356
2019-05-30T05:38:36.347Z,6424
2019-05-30T05:39:36.304Z,6424
2019-05-30T05:40:36.038Z,6436
2019-05-30T05:41:36.278Z,6576
2019-05-30T05:42:37.377Z,6852
2019-05-30T05:43:36.224Z,7160
2019-05-30T05:44:36.229Z,7460
2019-05-30T05:45:36.225Z,7716
2019-05-30T05:46:36.175Z,7928
2019-05-30T05:47:36.184Z,8108
2019-05-30T05:48:36.125Z,8380
2019-05-30T05:49:36.115Z,8784
2019-05-30T05:50:35.862Z,9260
2019-05-30T05:51:36.169Z,9668
2019-05-30T05:52:36.219Z,9944
2019-05-30T05:53:36.145Z,10060
2019-05-30T05:54:36.334Z,10000
2019-05-30T05:55:35.768Z,9848
2019-05-30T05:56:36.242Z,9624
2019-05-30T05:57:36.327Z,9484
2019-05-30T05:58:36.458Z,9596
2019-05-30T05:59:36.380Z,10036
2019-05-30T06:00:36.465Z,10636
2019-05-30T06:01:37.040Z,11212
2019-05-30T06:02:35.871Z,11596
2019-05-30T06:03:35.856Z,11728
2019-05-30T06:04:35.831Z,11524
2019-05-30T06:05:35.829Z,11216
2019-05-30T06:06:38.666Z,10844
2019-05-30T06:07:35.813Z,10556
2019-05-30T06:08:35.778Z,10372
2019-05-30T06:09:35.878Z,10396
2019-05-30T06:10:35.735Z,10632
2019-05-30T06:11:36.007Z,10988
2019-05-30T06:12:35.693Z,11356
2019-05-30T06:13:36.218Z,11692
2019-05-30T06:14:35.691Z,11976
2019-05-30T06:15:35.872Z,12144
2019-05-30T06:16:35.632Z,12192
2019-05-30T06:17:36.410Z,12148
2019-05-30T06:18:35.597Z,12052
2019-05-30T06:19:52.303Z,11872
2019-05-30T06:20:35.311Z,11776
2019-05-30T06:21:35.534Z,11704
2019-05-30T06:22:35.527Z,11692
2019-05-30T06:23:35.532Z,11736
2019-05-30T06:24:35.476Z,11828
2019-05-30T06:25:39.807Z,11932
2019-05-30T06:26:35.448Z,12012
2019-05-30T06:27:35.435Z,12080
2019-05-30T06:28:35.416Z,12164
2019-05-30T06:29:35.486Z,12280
2019-05-30T06:30:35.637Z,12700
2019-05-30T06:31:35.771Z,13244
2019-05-30T06:32:35.986Z,13944
2019-05-30T06:33:36.234Z,14600
2019-05-30T06:34:45.975Z,15304
2019-05-30T06:35:36.336Z,15764
2019-05-30T06:36:36.395Z,16176
2019-05-30T06:37:36.386Z,16452
2019-05-30T06:38:36.530Z,16376
2019-05-30T06:39:36.769Z,15912
2019-05-30T06:40:39.241Z,15024
2019-05-30T06:41:35.205Z,14204
2019-05-30T06:42:35.527Z,13460
2019-05-30T06:43:35.433Z,12756
2019-05-30T06:44:35.218Z,12120
2019-05-30T06:45:35.263Z,11656
2019-05-30T06:46:35.740Z,11400
2019-05-30T06:47:36.145Z,11164
2019-05-30T06:48:35.938Z,10992
2019-05-30T06:49:36.985Z,10912
2019-05-30T06:50:36.249Z,11144
2019-05-30T06:51:36.165Z,11424
2019-05-30T06:52:36.896Z,11972
2019-05-30T06:53:36.814Z,12764
2019-05-30T06:54:36.301Z,13476
2019-05-30T06:55:36.250Z,14052
2019-05-30T06:56:36.272Z,14524
2019-05-30T06:57:34.709Z,14848
2019-05-30T06:58:53.450Z,15508
2019-05-30T06:59:36.689Z,15940
2019-05-30T07:00:35.445Z,16264
2019-05-30T07:01:34.847Z,16296
2019-05-30T07:02:35.632Z,16656
2019-05-30T07:03:36.079Z,17112
2019-05-30T07:04:57.980Z,16924
2019-05-30T07:05:40.982Z,17440
2019-05-30T07:06:39.133Z,18304
2019-05-30T07:07:36.521Z,18912
2019-05-30T07:08:35.957Z,19296
2019-05-30T07:09:36.163Z,19168
2019-05-30T07:10:35.659Z,20000
2019-05-30T07:11:36.164Z,20896
2019-05-30T07:12:35.849Z,21152
2019-05-30T07:13:36.316Z,21280
2019-05-30T07:14:35.802Z,20320
2019-05-30T07:15:36.426Z,19904
2019-05-30T07:16:35.864Z,19456
2019-05-30T07:17:34.573Z,18688
2019-05-30T07:18:41.410Z,17504
2019-05-30T07:19:37.570Z,17408
2019-05-30T07:20:34.452Z,16932
2019-05-30T07:21:34.727Z,16640
2019-05-30T07:22:34.812Z,17408
2019-05-30T07:23:39.157Z,18560
2019-05-30T07:24:34.840Z,19232
2019-05-30T07:25:34.478Z,20224
2019-05-30T07:26:34.770Z,20768
2019-05-30T07:27:34.895Z,19616
2019-05-30T07:28:34.963Z,19040
2019-05-30T07:29:35.097Z,19648
2019-05-30T07:30:34.770Z,19328
2019-05-30T07:31:35.125Z,19456
2019-05-30T07:32:35.015Z,18048
2019-05-30T07:33:35.683Z,16016
2019-05-30T07:34:35.472Z,14400
2019-05-30T07:35:34.798Z,15300
2019-05-30T07:36:35.280Z,16092
2019-05-30T07:37:35.299Z,14784
2019-05-30T07:38:37.713Z,14796
2019-05-30T07:39:41.948Z,15128
2019-05-30T07:40:35.310Z,15128
2019-05-30T07:41:35.716Z,15188
2019-05-30T07:42:35.389Z,15436
2019-05-30T07:43:38.286Z,14688
2019-05-30T07:44:35.187Z,15944
2019-05-30T07:45:35.478Z,16780
2019-05-30T07:46:35.119Z,17824
2019-05-30T07:47:36.625Z,18400
2019-05-30T07:48:35.118Z,18080
2019-05-30T07:49:35.244Z,18016
2019-05-30T07:50:34.920Z,16828
2019-05-30T07:51:34.902Z,17888
2019-05-30T07:52:35.314Z,20320
2019-05-30T07:53:35.168Z,20512
2019-05-30T07:54:35.378Z,19488
2019-05-30T07:55:35.370Z,20128
2019-05-30T07:56:35.081Z,20960
2019-05-30T07:57:38.605Z,21056
2019-05-30T07:58:35.122Z,21568
2019-05-30T07:59:35.108Z,22016
2019-05-30T08:00:35.699Z,23040
2019-05-30T08:01:35.179Z,23936
2019-05-30T08:02:35.955Z,25696
2019-05-30T08:03:35.146Z,25984
2019-05-30T08:04:36.115Z,30496
2019-05-30T08:05:34.980Z,28128
2019-05-30T08:06:35.709Z,34368
2019-05-30T08:07:34.971Z,37152
2019-05-30T08:08:36.313Z,28384
2019-05-30T08:09:35.250Z,29312
2019-05-30T08:10:34.563Z,29536
2019-05-30T08:11:35.035Z,31296
2019-05-30T08:12:36.189Z,31648
2019-05-30T08:13:33.816Z,36608
2019-05-30T08:14:35.248Z,35232
2019-05-30T08:15:38.410Z,34848
2019-05-30T08:16:35.367Z,38784
2019-05-30T08:17:35.642Z,39168
2019-05-30T08:18:37.918Z,37248
2019-05-30T08:19:36.309Z,29696
2019-05-30T08:20:34.482Z,25920
2019-05-30T08:21:36.361Z,27360
2019-05-30T08:22:36.157Z,29248
2019-05-30T08:23:34.858Z,25440
2019-05-30T08:24:34.846Z,25984
2019-05-30T08:25:34.508Z,27360
2019-05-30T08:26:34.702Z,27712
2019-05-30T08:27:34.806Z,28480
2019-05-30T08:28:34.908Z,27648
2019-05-30T08:29:34.760Z,25760
2019-05-30T08:30:36.578Z,25920
2019-05-30T08:31:34.541Z,28288
2019-05-30T08:32:34.509Z,27168
2019-05-30T08:33:35.485Z,27424
2019-05-30T08:34:34.519Z,26784
2019-05-30T08:35:54.222Z,25984
2019-05-30T08:36:33.486Z,28032
2019-05-30T08:37:35.219Z,31936
2019-05-30T08:38:33.741Z,33824
2019-05-30T08:39:33.679Z,36768
2019-05-30T08:40:33.454Z,37152
2019-05-30T08:41:33.858Z,35968
2019-05-30T08:42:36.046Z,32128
2019-05-30T08:43:34.013Z,30944
2019-05-30T08:44:34.109Z,27968
2019-05-30T08:45:34.256Z,26336
2019-05-30T08:46:36.074Z,25408
2019-05-30T08:47:34.490Z,23328
2019-05-30T08:48:36.176Z,21536
2019-05-30T08:49:34.166Z,20736
2019-05-30T08:50:36.357Z,20160
2019-05-30T08:51:34.081Z,20768
2019-05-30T08:52:34.349Z,21696
2019-05-30T08:53:34.285Z,22688
2019-05-30T08:54:34.272Z,24032
2019-05-30T08:55:32.844Z,24928
2019-05-30T08:56:38.844Z,25280
2019-05-30T08:57:34.897Z,26048
2019-05-30T08:58:33.031Z,27552
2019-05-30T08:59:33.015Z,28896
2019-05-30T09:00:33.089Z,35072
2019-05-30T09:01:33.043Z,40608
2019-05-30T09:02:32.973Z,42048
2019-05-30T09:03:32.982Z,45536
2019-05-30T09:04:32.947Z,40384
2019-05-30T09:05:32.932Z,34432
2019-05-30T09:06:32.917Z,33216
2019-05-30T09:07:36.557Z,34176
2019-05-30T09:08:32.896Z,35456
2019-05-30T09:09:32.895Z,36960
2019-05-30T09:10:32.871Z,34208
2019-05-30T09:11:32.865Z,31104
2019-05-30T09:12:32.850Z,32352
2019-05-30T09:13:32.833Z,33568
2019-05-30T09:14:32.829Z,32352
2019-05-30T09:15:32.825Z,34880
2019-05-30T09:16:32.792Z,36864
2019-05-30T09:17:32.555Z,38240
2019-05-30T09:18:33.287Z,39552
2019-05-30T09:19:32.763Z,36896
2019-05-30T09:20:37.868Z,32416
2019-05-30T09:21:32.795Z,32032
2019-05-30T09:22:32.735Z,34400
2019-05-30T09:23:32.714Z,37280
2019-05-30T09:24:32.862Z,38976
2019-05-30T09:25:32.695Z,37632
2019-05-30T09:26:32.675Z,33152
2019-05-30T09:27:32.666Z,32000
2019-05-30T09:28:32.678Z,32896
2019-05-30T09:29:32.650Z,35456
2019-05-30T09:30:32.626Z,36992
2019-05-30T09:31:32.644Z,34816
2019-05-30T09:32:32.615Z,32640
2019-05-30T09:33:33.215Z,34720
2019-05-30T09:34:32.649Z,32224
2019-05-30T09:35:32.339Z,28800
2019-05-30T09:36:32.557Z,26944
2019-05-30T09:37:32.569Z,26784
2019-05-30T09:38:32.533Z,26528
2019-05-30T09:39:34.561Z,25920
2019-05-30T09:40:32.528Z,25568
2019-05-30T09:41:32.511Z,25664
2019-05-30T09:42:32.527Z,25504
2019-05-30T09:43:32.473Z,25728
2019-05-30T09:44:32.476Z,26112
2019-05-30T09:45:32.467Z,25472
2019-05-30T09:46:32.452Z,22752
2019-05-30T09:47:32.444Z,20768
2019-05-30T09:48:32.433Z,20128
2019-05-30T09:49:32.177Z,19264
2019-05-30T09:50:32.170Z,18496
2019-05-30T09:51:32.418Z,17132
2019-05-30T09:52:32.396Z,17504
2019-05-30T09:53:32.361Z,18880
2019-05-30T09:54:32.375Z,19072
2019-05-30T09:55:32.434Z,19104
2019-05-30T09:56:32.330Z,18880
2019-05-30T09:57:32.336Z,18976
2019-05-30T09:58:32.329Z,19104
2019-05-30T09:59:32.288Z,19296
2019-05-30T10:00:33.078Z,19552
2019-05-30T10:01:32.268Z,21664
2019-05-30T10:02:32.597Z,23424
2019-05-30T10:03:32.238Z,24672
2019-05-30T10:04:32.273Z,26528
2019-05-30T10:05:32.278Z,28928
2019-05-30T10:06:36.801Z,31392
2019-05-30T10:07:32.177Z,31040
2019-05-30T10:08:32.171Z,31808
2019-05-30T10:09:32.169Z,33088
2019-05-30T10:10:32.149Z,33120
2019-05-30T10:11:32.481Z,33376
2019-05-30T10:12:32.119Z,33536
2019-05-30T10:13:32.127Z,33856
2019-05-30T10:14:32.123Z,33024
2019-05-30T10:15:32.083Z,32224
2019-05-30T10:16:32.075Z,32928
2019-05-30T10:17:32.056Z,35072
2019-05-30T10:18:32.152Z,36928
2019-05-30T10:19:32.033Z,38752
2019-05-30T10:20:32.036Z,40832
2019-05-30T10:21:32.004Z,38720
2019-05-30T10:22:31.993Z,34496
2019-05-30T10:23:31.991Z,31360
2019-05-30T10:24:32.015Z,30368
2019-05-30T10:25:32.070Z,32128
2019-05-30T10:26:31.943Z,35360
2019-05-30T10:27:31.929Z,35040
2019-05-30T10:28:31.922Z,33280
2019-05-30T10:29:31.913Z,32480
2019-05-30T10:30:31.906Z,29536
2019-05-30T10:31:31.894Z,25984
2019-05-30T10:32:31.877Z,22528
2019-05-30T10:33:31.927Z,19360
2019-05-30T10:34:31.866Z,16924
2019-05-30T10:35:34.437Z,16312
2019-05-30T10:36:47.642Z,15948
2019-05-30T10:37:31.586Z,15500
2019-05-30T10:38:31.805Z,15964
2019-05-30T10:39:31.558Z,16444
2019-05-30T10:40:34.534Z,16016
2019-05-30T10:41:31.777Z,15952
2019-05-30T10:42:31.768Z,16096
2019-05-30T10:43:31.752Z,16404
2019-05-30T10:44:31.739Z,15856
2019-05-30T10:45:31.714Z,15508
2019-05-30T10:46:31.726Z,14976
2019-05-30T10:47:31.692Z,14356
2019-05-30T10:48:31.686Z,15284
2019-05-30T10:49:41.871Z,17792
2019-05-30T10:50:31.667Z,19904
2019-05-30T10:51:31.649Z,21952
2019-05-30T10:52:31.646Z,22304
2019-05-30T10:53:31.652Z,21824
2019-05-30T10:54:31.608Z,21408
2019-05-30T10:55:31.646Z,20672
2019-05-30T10:56:31.570Z,20704
2019-05-30T10:57:31.564Z,21184
2019-05-30T10:58:31.546Z,20320
2019-05-30T10:59:31.534Z,18496
2019-05-30T11:00:31.522Z,17536
2019-05-30T11:01:31.523Z,16464
2019-05-30T11:02:31.501Z,16156
2019-05-30T11:03:31.532Z,16368
2019-05-30T11:04:31.473Z,17504
2019-05-30T11:05:31.452Z,18752
2019-05-30T11:06:34.409Z,19744
2019-05-30T11:07:31.423Z,19712
2019-05-30T11:08:31.404Z,18432
2019-05-30T11:09:31.384Z,18080
2019-05-30T11:10:31.149Z,16028
2019-05-30T11:11:31.370Z,14840
2019-05-30T11:12:31.369Z,14112
2019-05-30T11:13:31.344Z,14424
2019-05-30T11:14:31.331Z,14336
2019-05-30T11:15:31.317Z,14176
2019-05-30T11:16:31.311Z,15428
2019-05-30T11:17:31.291Z,16080
2019-05-30T11:18:31.276Z,15068
2019-05-30T11:19:31.256Z,14592
2019-05-30T11:20:31.248Z,15880
2019-05-30T11:21:31.217Z,19136
2019-05-30T11:22:31.508Z,20256
2019-05-30T11:23:31.226Z,20832
2019-05-30T11:24:31.176Z,20480
2019-05-30T11:25:31.159Z,20640
2019-05-30T11:26:31.155Z,19680
2019-05-30T11:27:31.132Z,20224
2019-05-30T11:28:31.123Z,20256
2019-05-30T11:29:31.167Z,19680
2019-05-30T11:30:31.154Z,20096
2019-05-30T11:31:31.077Z,19680
2019-05-30T11:32:31.074Z,17336
2019-05-30T11:33:31.049Z,16108
2019-05-30T11:34:31.045Z,17728
2019-05-30T11:35:31.374Z,19040
2019-05-30T11:36:31.427Z,19232
2019-05-30T11:37:30.985Z,18880
2019-05-30T11:38:31.042Z,17792
2019-05-30T11:39:30.987Z,18080
2019-05-30T11:40:30.722Z,19456
2019-05-30T11:41:30.963Z,19968
2019-05-30T11:42:30.917Z,21152
2019-05-30T11:43:30.925Z,22656
2019-05-30T11:44:30.882Z,21856
2019-05-30T11:45:30.878Z,19584
2019-05-30T11:46:30.923Z,19616
2019-05-30T11:47:30.860Z,20928
2019-05-30T11:48:30.599Z,21120
2019-05-30T11:49:30.588Z,21728
2019-05-30T11:50:30.798Z,20928
2019-05-30T11:51:30.793Z,19680
2019-05-30T11:52:30.793Z,20640
2019-05-30T11:53:30.769Z,22080
2019-05-30T11:54:30.743Z,24480
2019-05-30T11:55:30.775Z,26944
2019-05-30T11:56:30.742Z,27168
2019-05-30T11:57:30.703Z,26208
2019-05-30T11:58:30.447Z,23296
2019-05-30T11:59:30.687Z,22656
2019-05-30T12:00:31.055Z,22144
2019-05-30T12:01:30.816Z,22976
2019-05-30T12:02:30.630Z,22592
2019-05-30T12:03:34.313Z,19200
2019-05-30T12:04:30.456Z,17124
2019-05-30T12:05:30.565Z,18496
2019-05-30T12:06:30.501Z,19008
2019-05-30T12:07:43.660Z,19488
2019-05-30T12:08:30.891Z,20288
2019-05-30T12:09:30.694Z,22880
2019-05-30T12:10:30.353Z,25344
2019-05-30T12:11:30.504Z,29696
2019-05-30T12:12:30.491Z,28768
2019-05-30T12:13:30.488Z,25312
2019-05-30T12:14:30.241Z,25152
2019-05-30T12:15:30.214Z,26944
2019-05-30T12:16:30.509Z,30144
2019-05-30T12:17:30.442Z,29920
2019-05-30T12:18:30.419Z,27040
2019-05-30T12:19:30.440Z,26464
2019-05-30T12:20:30.399Z,27392
2019-05-30T12:21:32.335Z,28032
2019-05-30T12:22:30.356Z,28960
2019-05-30T12:23:30.335Z,27808
2019-05-30T12:24:30.373Z,26528
2019-05-30T12:25:30.317Z,24960
2019-05-30T12:26:33.599Z,22464
2019-05-30T12:27:30.310Z,20736
2019-05-30T12:28:30.284Z,19136
2019-05-30T12:29:30.284Z,18880
2019-05-30T12:30:30.280Z,18528
2019-05-30T12:31:30.240Z,19584
2019-05-30T12:32:30.014Z,20736
2019-05-30T12:33:30.218Z,20320
2019-05-30T12:34:30.236Z,20032
2019-05-30T12:35:30.198Z,20384
2019-05-30T12:36:30.178Z,18976
2019-05-30T12:37:30.469Z,16476
2019-05-30T12:38:30.154Z,15772
2019-05-30T12:39:30.160Z,15448
2019-05-30T12:40:30.121Z,15484
2019-05-30T12:41:30.123Z,15172
2019-05-30T12:42:30.106Z,14408
2019-05-30T12:43:30.083Z,14284
2019-05-30T12:44:30.078Z,13732
2019-05-30T12:45:30.067Z,12592
2019-05-30T12:46:30.053Z,11228
2019-05-30T12:47:30.030Z,10308
2019-05-30T12:48:30.036Z,9476
2019-05-30T12:49:30.030Z,9112
2019-05-30T12:50:29.995Z,9060
2019-05-30T12:51:29.983Z,8828
2019-05-30T12:52:29.959Z,8468
2019-05-30T12:53:29.963Z,8616
2019-05-30T12:54:29.968Z,8860
2019-05-30T12:55:29.923Z,9076
2019-05-30T12:56:29.914Z,8632
2019-05-30T12:57:29.904Z,8040
2019-05-30T12:58:29.893Z,7212
2019-05-30T12:59:29.911Z,6612
2019-05-30T13:00:29.847Z,6268
2019-05-30T13:01:32.147Z,6032
2019-05-30T13:02:29.820Z,5884
2019-05-30T13:03:29.617Z,5836
2019-05-30T13:04:29.814Z,5980
2019-05-30T13:05:29.778Z,6376
2019-05-30T13:06:29.755Z,6640
2019-05-30T13:07:29.760Z,6660
2019-05-30T13:08:29.740Z,6432
2019-05-30T13:09:29.713Z,6304
2019-05-30T13:10:29.700Z,6364
2019-05-30T13:11:29.738Z,6432
2019-05-30T13:12:29.670Z,6440
2019-05-30T13:13:29.654Z,6536
2019-05-30T13:14:29.645Z,6552
2019-05-30T13:15:29.630Z,6672
2019-05-30T13:16:29.602Z,6668
2019-05-30T13:17:29.600Z,6692
2019-05-30T13:18:29.595Z,6744
2019-05-30T13:19:29.575Z,6968
2019-05-30T13:20:29.549Z,7152
2019-05-30T13:21:29.531Z,6868
2019-05-30T13:22:29.509Z,6736
2019-05-30T13:23:29.505Z,6680
2019-05-30T13:24:29.485Z,6292